sensor_id;sensor_type;location;lat;lon;timestamp;pressure;altitude;pressure_sealevel;temperature;humidity
45357;BME280;31092;51.924;21.448;2024-01-15T00:02:09;97541.69;;;-0.14;100.00
45357;BME280;31092;51.924;21.448;2024-01-15T00:04:39;97610.19;;;0.30;100.00
45357;BME280;31092;51.924;21.448;2024-01-15T00:07:07;97481.50;;;-0.44;100.00
45357;BME280;31092;51.924;21.448;2024-01-15T00:09:34;97524.97;;;-0.14;100.00
45357;BME280;31092;51.924;21.448;2024-01-15T00:12:00;97506.97;;;-0.19;100.00
45357;BME280;31092;51.924;21.448;2024-01-15T00:14:25;97517.06;;;-0.06;100.00
45357;BME280;31092;51.924;21.448;2024-01-15T00:16:51;97491.28;;;-0.20;100.00
45357;BME280;31092;51.924;21.448;2024-01-15T00:19:17;97474.56;;;-0.29;100.00
45357;BME280;31092;51.924;21.448;2024-01-15T00:21:43;97481.53;;;-0.28;100.00
45357;BME280;31092;51.924;21.448;2024-01-15T00:24:09;97553.94;;;0.20;100.00
45357;BME280;31092;51.924;21.448;2024-01-15T00:26:35;97488.94;;;-0.15;100.00
45357;BME280;31092;51.924;21.448;2024-01-15T00:29:00;97456.22;;;-0.31;100.00
45357;BME280;31092;51.924;21.448;2024-01-15T00:31:26;97475.56;;;-0.14;100.00
45357;BME280;31092;51.924;21.448;2024-01-15T00:33:51;97545.66;;;0.31;100.00
45357;BME280;31092;51.924;21.448;2024-01-15T00:36:17;97431.44;;;-0.38;100.00
45357;BME280;31092;51.924;21.448;2024-01-15T00:38:44;97558.72;;;0.41;100.00
45357;BME280;31092;51.924;21.448;2024-01-15T00:41:09;97457.84;;;-0.21;100.00
45357;BME280;31092;51.924;21.448;2024-01-15T00:43:35;97512.25;;;0.14;100.00
45357;BME280;31092;51.924;21.448;2024-01-15T00:46:04;97523.97;;;0.28;100.00
45357;BME280;31092;51.924;21.448;2024-01-15T00:48:30;97536.22;;;0.37;100.00
45357;BME280;31092;51.924;21.448;2024-01-15T00:50:56;97524.81;;;0.28;100.00
45357;BME280;31092;51.924;21.448;2024-01-15T00:53:21;97441.19;;;-0.30;100.00
45357;BME280;31092;51.924;21.448;2024-01-15T00:55:49;97494.06;;;0.11;100.00
45357;BME280;31092;51.924;21.448;2024-01-15T00:58:15;97514.22;;;0.28;100.00
45357;BME280;31092;51.924;21.448;2024-01-15T01:00:41;97510.75;;;0.19;100.00
45357;BME280;31092;51.924;21.448;2024-01-15T01:03:06;97407.28;;;-0.43;100.00
45357;BME280;31092;51.924;21.448;2024-01-15T01:05:33;97410.28;;;-0.38;100.00
45357;BME280;31092;51.924;21.448;2024-01-15T01:07:59;97450.94;;;-0.06;100.00
45357;BME280;31092;51.924;21.448;2024-01-15T01:10:25;97409.75;;;-0.25;100.00
45357;BME280;31092;51.924;21.448;2024-01-15T01:12:50;97366.66;;;-0.50;100.00
45357;BME280;31092;51.924;21.448;2024-01-15T01:15:16;97464.78;;;0.12;100.00
45357;BME280;31092;51.924;21.448;2024-01-15T01:17:41;97387.63;;;-0.32;100.00
45357;BME280;31092;51.924;21.448;2024-01-15T01:20:07;97401.50;;;-0.22;100.00
45357;BME280;31092;51.924;21.448;2024-01-15T01:22:34;97497.50;;;0.36;100.00
45357;BME280;31092;51.924;21.448;2024-01-15T01:25:00;97429.75;;;0.02;100.00
45357;BME280;31092;51.924;21.448;2024-01-15T01:27:26;97353.09;;;-0.47;100.00
45357;BME280;31092;51.924;21.448;2024-01-15T01:29:51;97433.22;;;0.03;100.00
45357;BME280;31092;51.924;21.448;2024-01-15T01:32:17;97485.44;;;0.33;100.00
45357;BME280;31092;51.924;21.448;2024-01-15T01:34:43;97472.72;;;0.20;100.00
45357;BME280;31092;51.924;21.448;2024-01-15T01:37:12;97453.19;;;0.13;100.00
45357;BME280;31092;51.924;21.448;2024-01-15T01:39:39;97396.38;;;-0.23;100.00
45357;BME280;31092;51.924;21.448;2024-01-15T01:42:05;97437.03;;;0.00;100.00
45357;BME280;31092;51.924;21.448;2024-01-15T01:44:30;97458.69;;;0.12;100.00
45357;BME280;31092;51.924;21.448;2024-01-15T01:46:57;97446.63;;;0.01;100.00
45357;BME280;31092;51.924;21.448;2024-01-15T01:49:24;97372.44;;;-0.46;100.00
45357;BME280;31092;51.924;21.448;2024-01-15T01:51:50;97470.09;;;0.12;100.00
45357;BME280;31092;51.924;21.448;2024-01-15T01:54:16;97463.81;;;0.05;100.00
45357;BME280;31092;51.924;21.448;2024-01-15T01:56:43;97455.41;;;-0.07;100.00
45357;BME280;31092;51.924;21.448;2024-01-15T01:59:10;97458.34;;;-0.02;100.00
45357;BME280;31092;51.924;21.448;2024-01-15T02:01:36;97367.16;;;-0.55;100.00
45357;BME280;31092;51.924;21.448;2024-01-15T02:04:03;97373.59;;;-0.49;100.00
45357;BME280;31092;51.924;21.448;2024-01-15T02:06:29;97469.09;;;0.05;100.00
45357;BME280;31092;51.924;21.448;2024-01-15T02:08:55;97351.63;;;-0.66;100.00
45357;BME280;31092;51.924;21.448;2024-01-15T02:11:21;97355.09;;;-0.57;100.00
45357;BME280;31092;51.924;21.448;2024-01-15T02:13:46;97432.25;;;-0.13;100.00
45357;BME280;31092;51.924;21.448;2024-01-15T02:16:12;97294.66;;;-0.93;100.00
45357;BME280;31092;51.924;21.448;2024-01-15T02:18:44;97348.84;;;-0.56;100.00
45357;BME280;31092;51.924;21.448;2024-01-15T02:21:11;97416.69;;;-0.16;100.00
45357;BME280;31092;51.924;21.448;2024-01-15T02:23:37;97413.88;;;-0.14;100.00
45357;BME280;31092;51.924;21.448;2024-01-15T02:26:04;97382.50;;;-0.34;100.00
45357;BME280;31092;51.924;21.448;2024-01-15T02:28:30;97425.44;;;-0.07;100.00
45357;BME280;31092;51.924;21.448;2024-01-15T02:30:55;97344.69;;;-0.51;100.00
45357;BME280;31092;51.924;21.448;2024-01-15T02:33:21;97418.69;;;-0.10;100.00
45357;BME280;31092;51.924;21.448;2024-01-15T02:35:47;97422.13;;;-0.01;100.00
45357;BME280;31092;51.924;21.448;2024-01-15T02:38:15;97329.16;;;-0.54;100.00
45357;BME280;31092;51.924;21.448;2024-01-15T02:40:42;97398.34;;;-0.09;100.00
45357;BME280;31092;51.924;21.448;2024-01-15T02:43:08;97413.03;;;0.02;100.00
45357;BME280;31092;51.924;21.448;2024-01-15T02:45:34;97378.38;;;-0.20;100.00
45357;BME280;31092;51.924;21.448;2024-01-15T02:47:59;97363.16;;;-0.26;100.00
45357;BME280;31092;51.924;21.448;2024-01-15T02:50:25;97290.19;;;-0.76;100.00
45357;BME280;31092;51.924;21.448;2024-01-15T02:52:51;97317.75;;;-0.54;100.00
45357;BME280;31092;51.924;21.448;2024-01-15T02:55:16;97363.50;;;-0.29;100.00
45357;BME280;31092;51.924;21.448;2024-01-15T02:57:42;97394.03;;;-0.02;100.00
45357;BME280;31092;51.924;21.448;2024-01-15T03:00:08;97374.91;;;-0.20;100.00
45357;BME280;31092;51.924;21.448;2024-01-15T03:02:44;97397.34;;;0.00;100.00
45357;BME280;31092;51.924;21.448;2024-01-15T03:05:10;97356.22;;;-0.27;100.00
45357;BME280;31092;51.924;21.448;2024-01-15T03:07:35;97354.56;;;-0.20;100.00
45357;BME280;31092;51.924;21.448;2024-01-15T03:10:01;97367.44;;;-0.09;100.00
45357;BME280;31092;51.924;21.448;2024-01-15T03:12:27;97395.69;;;-0.01;100.00
45357;BME280;31092;51.924;21.448;2024-01-15T03:14:53;97364.97;;;-0.10;100.00
45357;BME280;31092;51.924;21.448;2024-01-15T03:17:18;97373.69;;;-0.02;100.00
45357;BME280;31092;51.924;21.448;2024-01-15T03:19:44;97315.06;;;-0.30;100.00
45357;BME280;31092;51.924;21.448;2024-01-15T03:22:09;97337.16;;;-0.14;100.00
45357;BME280;31092;51.924;21.448;2024-01-15T03:24:35;97342.63;;;-0.08;100.00
45357;BME280;31092;51.924;21.448;2024-01-15T03:27:02;97329.75;;;-0.19;100.00
45357;BME280;31092;51.924;21.448;2024-01-15T03:29:27;97334.19;;;-0.11;100.00
45357;BME280;31092;51.924;21.448;2024-01-15T03:31:53;97259.78;;;-0.56;100.00
45357;BME280;31092;51.924;21.448;2024-01-15T03:34:18;97303.16;;;-0.26;100.00
45357;BME280;31092;51.924;21.448;2024-01-15T03:36:44;97304.47;;;-0.21;100.00
45357;BME280;31092;51.924;21.448;2024-01-15T03:39:09;97337.16;;;-0.06;100.00
45357;BME280;31092;51.924;21.448;2024-01-15T03:41:35;97214.09;;;-0.81;100.00
45357;BME280;31092;51.924;21.448;2024-01-15T03:44:00;97260.41;;;-0.54;100.00
45357;BME280;31092;51.924;21.448;2024-01-15T03:46:26;97250.50;;;-0.52;100.00
45357;BME280;31092;51.924;21.448;2024-01-15T03:48:52;97294.41;;;-0.26;100.00
45357;BME280;31092;51.924;21.448;2024-01-15T03:51:18;97258.94;;;-0.48;100.00
45357;BME280;31092;51.924;21.448;2024-01-15T03:53:43;97334.03;;;-0.10;100.00
45357;BME280;31092;51.924;21.448;2024-01-15T03:56:09;97261.09;;;-0.52;100.00
45357;BME280;31092;51.924;21.448;2024-01-15T03:58:34;97318.84;;;-0.16;100.00
45357;BME280;31092;51.924;21.448;2024-01-15T04:01:00;97314.69;;;-0.18;100.00
45357;BME280;31092;51.924;21.448;2024-01-15T04:03:25;97227.94;;;-0.70;100.00
45357;BME280;31092;51.924;21.448;2024-01-15T04:05:51;97279.56;;;-0.35;100.00
45357;BME280;31092;51.924;21.448;2024-01-15T04:08:16;97248.88;;;-0.53;100.00
45357;BME280;31092;51.924;21.448;2024-01-15T04:10:42;97201.03;;;-0.82;100.00
45357;BME280;31092;51.924;21.448;2024-01-15T04:13:07;97254.81;;;-0.42;100.00
45357;BME280;31092;51.924;21.448;2024-01-15T04:15:33;97272.47;;;-0.35;100.00
45357;BME280;31092;51.924;21.448;2024-01-15T04:17:58;97237.78;;;-0.48;100.00
45357;BME280;31092;51.924;21.448;2024-01-15T04:20:24;97248.84;;;-0.44;100.00
45357;BME280;31092;51.924;21.448;2024-01-15T04:22:50;97251.31;;;-0.35;100.00
45357;BME280;31092;51.924;21.448;2024-01-15T04:25:15;97212.84;;;-0.54;100.00
45357;BME280;31092;51.924;21.448;2024-01-15T04:27:40;97181.53;;;-0.73;100.00
45357;BME280;31092;51.924;21.448;2024-01-15T04:30:06;97273.84;;;-0.08;100.00
45357;BME280;31092;51.924;21.448;2024-01-15T04:32:32;97174.59;;;-0.74;100.00
45357;BME280;31092;51.924;21.448;2024-01-15T04:34:57;97254.22;;;-0.21;100.00
45357;BME280;31092;51.924;21.448;2024-01-15T04:37:23;97225.72;;;-0.42;100.00
45357;BME280;31092;51.924;21.448;2024-01-15T04:39:48;97157.56;;;-0.72;100.00
45357;BME280;31092;51.924;21.448;2024-01-15T04:42:14;97225.00;;;-0.28;100.00
45357;BME280;31092;51.924;21.448;2024-01-15T04:44:39;97236.84;;;-0.16;100.00
45357;BME280;31092;51.924;21.448;2024-01-15T04:47:05;97230.88;;;-0.18;100.00
45357;BME280;31092;51.924;21.448;2024-01-15T04:49:30;97146.03;;;-0.70;100.00
45357;BME280;31092;51.924;21.448;2024-01-15T04:51:56;97245.94;;;-0.10;100.00
45357;BME280;31092;51.924;21.448;2024-01-15T04:54:21;97058.16;;;-1.12;100.00
45357;BME280;31092;51.924;21.448;2024-01-15T04:56:47;97146.94;;;-0.55;100.00
45357;BME280;31092;51.924;21.448;2024-01-15T04:59:13;97123.22;;;-0.72;100.00
45357;BME280;31092;51.924;21.448;2024-01-15T05:01:39;97115.66;;;-0.75;100.00
45357;BME280;31092;51.924;21.448;2024-01-15T05:04:05;97206.94;;;-0.16;100.00
45357;BME280;31092;51.924;21.448;2024-01-15T05:06:31;97226.69;;;-0.04;100.00
45357;BME280;31092;51.924;21.448;2024-01-15T05:08:56;97134.41;;;-0.61;100.00
45357;BME280;31092;51.924;21.448;2024-01-15T05:11:22;97120.41;;;-0.70;100.00
45357;BME280;31092;51.924;21.448;2024-01-15T05:13:48;97138.88;;;-0.62;100.00
45357;BME280;31092;51.924;21.448;2024-01-15T05:16:13;97145.94;;;-0.54;100.00
45357;BME280;31092;51.924;21.448;2024-01-15T05:18:39;97188.81;;;-0.28;100.00
45357;BME280;31092;51.924;21.448;2024-01-15T05:21:04;97209.03;;;-0.12;100.00
45357;BME280;31092;51.924;21.448;2024-01-15T05:23:31;97207.06;;;-0.10;100.00
45357;BME280;31092;51.924;21.448;2024-01-15T05:25:57;97117.09;;;-0.72;100.00
45357;BME280;31092;51.924;21.448;2024-01-15T05:28:22;97192.06;;;-0.17;100.00
45357;BME280;31092;51.924;21.448;2024-01-15T05:30:48;97154.34;;;-0.42;100.00
45357;BME280;31092;51.924;21.448;2024-01-15T05:33:13;97144.13;;;-0.54;100.00
45357;BME280;31092;51.924;21.448;2024-01-15T05:35:39;97209.03;;;-0.12;100.00
45357;BME280;31092;51.924;21.448;2024-01-15T05:38:05;97111.81;;;-0.72;100.00
45357;BME280;31092;51.924;21.448;2024-01-15T05:40:30;97198.34;;;-0.18;100.00
45357;BME280;31092;51.924;21.448;2024-01-15T05:42:55;97196.34;;;-0.16;100.00
45357;BME280;31092;51.924;21.448;2024-01-15T05:45:21;97173.56;;;-0.26;100.00
45357;BME280;31092;51.924;21.448;2024-01-15T05:47:46;97120.03;;;-0.59;100.00
45357;BME280;31092;51.924;21.448;2024-01-15T05:50:12;97123.34;;;-0.57;100.00
45357;BME280;31092;51.924;21.448;2024-01-15T05:52:37;97148.69;;;-0.39;100.00
45357;BME280;31092;51.924;21.448;2024-01-15T05:55:04;97123.81;;;-0.53;100.00
45357;BME280;31092;51.924;21.448;2024-01-15T05:57:30;97211.50;;;-0.02;100.00
45357;BME280;31092;51.924;21.448;2024-01-15T05:59:56;97222.22;;;0.05;100.00
45357;BME280;31092;51.924;21.448;2024-01-15T06:02:21;97098.94;;;-0.67;100.00
45357;BME280;31092;51.924;21.448;2024-01-15T06:04:47;97214.28;;;0.05;100.00
45357;BME280;31092;51.924;21.448;2024-01-15T06:07:12;97206.00;;;-0.01;100.00
45357;BME280;31092;51.924;21.448;2024-01-15T06:09:38;97114.94;;;-0.60;100.00
45357;BME280;31092;51.924;21.448;2024-01-15T06:12:04;97202.06;;;-0.05;100.00
45357;BME280;31092;51.924;21.448;2024-01-15T06:14:30;97151.69;;;-0.42;100.00
45357;BME280;31092;51.924;21.448;2024-01-15T06:16:55;97114.75;;;-0.59;100.00
45357;BME280;31092;51.924;21.448;2024-01-15T06:19:21;97125.97;;;-0.57;100.00
45357;BME280;31092;51.924;21.448;2024-01-15T06:21:46;97209.53;;;-0.08;100.00
45357;BME280;31092;51.924;21.448;2024-01-15T06:24:12;97106.72;;;-0.74;100.00
45357;BME280;31092;51.924;21.448;2024-01-15T06:26:38;97099.44;;;-0.72;100.00
45357;BME280;31092;51.924;21.448;2024-01-15T06:29:04;97105.03;;;-0.66;100.00
45357;BME280;31092;51.924;21.448;2024-01-15T06:31:29;97092.69;;;-0.74;100.00
45357;BME280;31092;51.924;21.448;2024-01-15T06:33:55;97144.88;;;-0.37;100.00
45357;BME280;31092;51.924;21.448;2024-01-15T06:36:21;97197.91;;;0.01;100.00
45357;BME280;31092;51.924;21.448;2024-01-15T06:38:47;97166.13;;;-0.22;100.00
45357;BME280;31092;51.924;21.448;2024-01-15T06:41:13;97106.63;;;-0.57;100.00
45357;BME280;31092;51.924;21.448;2024-01-15T06:43:38;97097.88;;;-0.58;100.00
45357;BME280;31092;51.924;21.448;2024-01-15T06:46:04;97080.09;;;-0.64;100.00
45357;BME280;31092;51.924;21.448;2024-01-15T06:48:29;97139.03;;;-0.24;100.00
45357;BME280;31092;51.924;21.448;2024-01-15T06:50:55;97160.66;;;-0.20;100.00
45357;BME280;31092;51.924;21.448;2024-01-15T06:53:20;97181.84;;;0.03;100.00
45357;BME280;31092;51.924;21.448;2024-01-15T06:55:46;97103.97;;;-0.49;100.00
45357;BME280;31092;51.924;21.448;2024-01-15T06:58:11;97093.88;;;-0.54;100.00
45357;BME280;31092;51.924;21.448;2024-01-15T07:00:37;97119.09;;;-0.35;100.00
45357;BME280;31092;51.924;21.448;2024-01-15T07:03:03;96999.53;;;-1.07;100.00
45357;BME280;31092;51.924;21.448;2024-01-15T07:05:28;97155.81;;;-0.09;100.00
45357;BME280;31092;51.924;21.448;2024-01-15T07:07:56;97179.22;;;0.03;100.00
45357;BME280;31092;51.924;21.448;2024-01-15T07:10:21;97104.25;;;-0.44;100.00
45357;BME280;31092;51.924;21.448;2024-01-15T07:12:48;97171.16;;;-0.04;100.00
45357;BME280;31092;51.924;21.448;2024-01-15T07:15:14;97081.38;;;-0.60;100.00
45357;BME280;31092;51.924;21.448;2024-01-15T07:17:40;97164.44;;;-0.15;100.00
45357;BME280;31092;51.924;21.448;2024-01-15T07:20:08;97187.47;;;0.08;100.00
45357;BME280;31092;51.924;21.448;2024-01-15T07:22:37;97082.03;;;-0.58;100.00
45357;BME280;31092;51.924;21.448;2024-01-15T07:25:03;97121.22;;;-0.30;100.00
45357;BME280;31092;51.924;21.448;2024-01-15T07:27:30;97101.94;;;-0.39;100.00
45357;BME280;31092;51.924;21.448;2024-01-15T07:29:57;97134.84;;;-0.18;100.00
45357;BME280;31092;51.924;21.448;2024-01-15T07:32:23;97155.28;;;-0.04;100.00
45357;BME280;31092;51.924;21.448;2024-01-15T07:34:48;97195.63;;;0.21;100.00
45357;BME280;31092;51.924;21.448;2024-01-15T07:37:15;97084.59;;;-0.41;100.00
45357;BME280;31092;51.924;21.448;2024-01-15T07:39:40;97165.28;;;0.09;100.00
45357;BME280;31092;51.924;21.448;2024-01-15T07:42:06;97058.56;;;-0.53;100.00
45357;BME280;31092;51.924;21.448;2024-01-15T07:44:32;97142.38;;;0.01;100.00
45357;BME280;31092;51.924;21.448;2024-01-15T07:46:58;97151.72;;;0.12;100.00
45357;BME280;31092;51.924;21.448;2024-01-15T07:49:23;97052.06;;;-0.50;100.00
45357;BME280;31092;51.924;21.448;2024-01-15T07:51:49;97146.31;;;0.05;100.00
45357;BME280;31092;51.924;21.448;2024-01-15T07:54:14;97086.22;;;-0.40;100.00
45357;BME280;31092;51.924;21.448;2024-01-15T07:56:59;97186.53;;;0.23;100.00
45357;BME280;31092;51.924;21.448;2024-01-15T07:59:26;97097.22;;;-0.29;100.00
45357;BME280;31092;51.924;21.448;2024-01-15T08:01:52;97075.97;;;-0.35;100.00
45357;BME280;31092;51.924;21.448;2024-01-15T08:04:17;97077.47;;;-0.41;100.00
45357;BME280;31092;51.924;21.448;2024-01-15T08:06:43;97061.84;;;-0.51;100.00
45357;BME280;31092;51.924;21.448;2024-01-15T08:09:08;97087.59;;;-0.44;100.00
45357;BME280;31092;51.924;21.448;2024-01-15T08:11:35;97170.25;;;0.12;100.00
45357;BME280;31092;51.924;21.448;2024-01-15T08:14:01;97059.19;;;-0.51;100.00
45357;BME280;31092;51.924;21.448;2024-01-15T08:16:26;97063.66;;;-0.51;100.00
45357;BME280;31092;51.924;21.448;2024-01-15T08:18:55;97081.41;;;-0.37;100.00
45357;BME280;31092;51.924;21.448;2024-01-15T08:21:21;97173.16;;;0.25;100.00
45357;BME280;31092;51.924;21.448;2024-01-15T08:23:47;97172.75;;;0.28;100.00
45357;BME280;31092;51.924;21.448;2024-01-15T08:26:13;96999.94;;;-0.87;100.00
45357;BME280;31092;51.924;21.448;2024-01-15T08:28:38;97164.06;;;0.19;100.00
45357;BME280;31092;51.924;21.448;2024-01-15T08:31:04;97150.56;;;0.14;100.00
45357;BME280;31092;51.924;21.448;2024-01-15T08:33:29;97161.13;;;0.14;100.00
45357;BME280;31092;51.924;21.448;2024-01-15T08:35:54;97078.25;;;-0.32;100.00
45357;BME280;31092;51.924;21.448;2024-01-15T08:38:20;97208.66;;;0.31;100.00
45357;BME280;31092;51.924;21.448;2024-01-15T08:40:46;97157.06;;;0.04;100.00
45357;BME280;31092;51.924;21.448;2024-01-15T08:43:11;97088.75;;;-0.47;100.00
45357;BME280;31092;51.924;21.448;2024-01-15T08:45:37;97114.09;;;-0.30;100.00
45357;BME280;31092;51.924;21.448;2024-01-15T08:48:02;97208.59;;;0.16;100.00
45357;BME280;31092;51.924;21.448;2024-01-15T08:50:29;97114.00;;;-0.44;100.00
45357;BME280;31092;51.924;21.448;2024-01-15T08:52:55;97149.63;;;-0.24;100.00
45357;BME280;31092;51.924;21.448;2024-01-15T08:55:21;97100.72;;;-0.59;100.00
45357;BME280;31092;51.924;21.448;2024-01-15T08:57:48;97177.31;;;-0.12;100.00
45357;BME280;31092;51.924;21.448;2024-01-15T09:00:14;97098.41;;;-0.62;100.00
45357;BME280;31092;51.924;21.448;2024-01-15T09:02:39;97110.59;;;-0.53;100.00
45357;BME280;31092;51.924;21.448;2024-01-15T09:05:05;97108.31;;;-0.64;100.00
45357;BME280;31092;51.924;21.448;2024-01-15T09:07:32;97109.47;;;-0.59;100.00
45357;BME280;31092;51.924;21.448;2024-01-15T09:09:57;97186.59;;;-0.16;100.00
45357;BME280;31092;51.924;21.448;2024-01-15T09:12:25;97181.97;;;-0.14;100.00
45357;BME280;31092;51.924;21.448;2024-01-15T09:14:50;97181.44;;;-0.09;100.00
45357;BME280;31092;51.924;21.448;2024-01-15T09:17:17;97084.22;;;-0.69;100.00
45357;BME280;31092;51.924;21.448;2024-01-15T09:19:43;97126.56;;;-0.46;100.00
45357;BME280;31092;51.924;21.448;2024-01-15T09:22:09;97194.28;;;0.02;100.00
45357;BME280;31092;51.924;21.448;2024-01-15T09:24:35;97098.69;;;-0.57;100.00
45357;BME280;31092;51.924;21.448;2024-01-15T09:27:00;97146.16;;;-0.25;100.00
45357;BME280;31092;51.924;21.448;2024-01-15T09:29:26;97199.97;;;0.14;100.00
45357;BME280;31092;51.924;21.448;2024-01-15T09:31:51;97137.38;;;-0.25;100.00
45357;BME280;31092;51.924;21.448;2024-01-15T09:34:17;97205.88;;;0.24;100.00
45357;BME280;31092;51.924;21.448;2024-01-15T09:36:43;97069.25;;;-0.46;100.00
45357;BME280;31092;51.924;21.448;2024-01-15T09:39:09;97180.66;;;0.36;100.00
45357;BME280;31092;51.924;21.448;2024-01-15T09:41:36;97173.66;;;0.43;100.00
45357;BME280;31092;51.924;21.448;2024-01-15T09:44:03;97091.44;;;-0.01;100.00
45357;BME280;31092;51.924;21.448;2024-01-15T09:46:30;97149.50;;;0.46;100.00
45357;BME280;31092;51.924;21.448;2024-01-15T09:48:56;97070.41;;;0.43;100.00
45357;BME280;31092;51.924;21.448;2024-01-15T09:51:23;97154.28;;;1.04;100.00
45357;BME280;31092;51.924;21.448;2024-01-15T09:53:49;97078.94;;;0.54;100.00
45357;BME280;31092;51.924;21.448;2024-01-15T09:56:15;97005.81;;;0.00;100.00
45357;BME280;31092;51.924;21.448;2024-01-15T09:58:41;97079.34;;;0.42;100.00
45357;BME280;31092;51.924;21.448;2024-01-15T10:01:08;97129.31;;;0.60;100.00
45357;BME280;31092;51.924;21.448;2024-01-15T10:03:34;96983.84;;;-0.23;100.00
45357;BME280;31092;51.924;21.448;2024-01-15T10:05:59;97143.25;;;0.77;100.00
45357;BME280;31092;51.924;21.448;2024-01-15T10:08:25;97126.28;;;0.71;100.00
45357;BME280;31092;51.924;21.448;2024-01-15T10:10:51;97156.88;;;0.89;100.00
45357;BME280;31092;51.924;21.448;2024-01-15T10:13:17;97173.88;;;0.94;100.00
45357;BME280;31092;51.924;21.448;2024-01-15T10:15:46;97166.13;;;0.93;100.00
45357;BME280;31092;51.924;21.448;2024-01-15T10:18:15;97119.75;;;0.74;100.00
45357;BME280;31092;51.924;21.448;2024-01-15T10:20:40;97177.03;;;1.13;100.00
45357;BME280;31092;51.924;21.448;2024-01-15T10:23:07;97179.88;;;1.11;100.00
45357;BME280;31092;51.924;21.448;2024-01-15T10:25:35;97175.63;;;1.02;100.00
45357;BME280;31092;51.924;21.448;2024-01-15T10:28:02;97192.34;;;1.03;100.00
45357;BME280;31092;51.924;21.448;2024-01-15T10:30:28;97190.16;;;1.06;100.00
45357;BME280;31092;51.924;21.448;2024-01-15T10:33:01;97208.47;;;1.16;100.00
45357;BME280;31092;51.924;21.448;2024-01-15T10:35:29;97125.84;;;0.60;100.00
45357;BME280;31092;51.924;21.448;2024-01-15T10:37:54;97147.34;;;0.65;100.00
45357;BME280;31092;51.924;21.448;2024-01-15T10:40:20;97117.41;;;0.41;100.00
45357;BME280;31092;51.924;21.448;2024-01-15T10:42:45;97233.41;;;1.07;100.00
45357;BME280;31092;51.924;21.448;2024-01-15T10:45:13;97201.84;;;0.82;100.00
45357;BME280;31092;51.924;21.448;2024-01-15T10:47:39;97169.22;;;0.59;100.00
45357;BME280;31092;51.924;21.448;2024-01-15T10:50:05;97133.53;;;0.32;100.00
45357;BME280;31092;51.924;21.448;2024-01-15T10:52:34;97163.34;;;0.48;100.00
45357;BME280;31092;51.924;21.448;2024-01-15T10:55:00;97241.97;;;0.94;100.00
45357;BME280;31092;51.924;21.448;2024-01-15T10:57:26;97171.84;;;0.44;100.00
45357;BME280;31092;51.924;21.448;2024-01-15T10:59:52;97245.94;;;0.75;100.00
45357;BME280;31092;51.924;21.448;2024-01-15T11:02:18;97182.50;;;0.36;100.00
45357;BME280;31092;51.924;21.448;2024-01-15T11:04:44;97269.50;;;0.85;100.00
45357;BME280;31092;51.924;21.448;2024-01-15T11:07:10;97193.38;;;0.41;100.00
45357;BME280;31092;51.924;21.448;2024-01-15T11:09:37;97174.25;;;0.31;100.00
45357;BME280;31092;51.924;21.448;2024-01-15T11:12:15;97293.66;;;0.90;100.00
45357;BME280;31092;51.924;21.448;2024-01-15T11:14:47;97181.56;;;0.29;100.00
45357;BME280;31092;51.924;21.448;2024-01-15T11:17:13;97293.19;;;0.86;100.00
45357;BME280;31092;51.924;21.448;2024-01-15T11:24:55;97174.09;;;0.32;100.00
45357;BME280;31092;51.924;21.448;2024-01-15T11:30:10;97292.66;;;1.14;100.00
45357;BME280;31092;51.924;21.448;2024-01-15T11:32:36;97185.81;;;0.53;100.00
45357;BME280;31092;51.924;21.448;2024-01-15T11:35:02;97139.84;;;0.31;100.00
45357;BME280;31092;51.924;21.448;2024-01-15T11:42:58;97175.81;;;0.63;100.00
45357;BME280;31092;51.924;21.448;2024-01-15T11:45:23;97286.09;;;1.25;100.00
45357;BME280;31092;51.924;21.448;2024-01-15T11:50:40;97179.09;;;0.50;100.00
45357;BME280;31092;51.924;21.448;2024-01-15T11:53:16;97296.13;;;1.14;100.00
45357;BME280;31092;51.924;21.448;2024-01-15T11:55:44;97232.63;;;0.83;100.00
45357;BME280;31092;51.924;21.448;2024-01-15T11:58:10;97290.16;;;1.12;100.00
45357;BME280;31092;51.924;21.448;2024-01-15T12:00:47;97312.69;;;1.31;100.00
45357;BME280;31092;51.924;21.448;2024-01-15T12:03:14;97307.94;;;1.27;100.00
45357;BME280;31092;51.924;21.448;2024-01-15T12:05:40;97255.56;;;0.91;100.00
45357;BME280;31092;51.924;21.448;2024-01-15T12:08:07;97299.28;;;1.10;100.00
45357;BME280;31092;51.924;21.448;2024-01-15T12:10:41;97274.56;;;0.94;100.00
45357;BME280;31092;51.924;21.448;2024-01-15T12:13:13;97350.25;;;1.43;100.00
45357;BME280;31092;51.924;21.448;2024-01-15T12:15:39;97385.41;;;1.37;100.00
45357;BME280;31092;51.924;21.448;2024-01-15T12:18:10;97370.28;;;1.23;100.00
45357;BME280;31092;51.924;21.448;2024-01-15T12:20:35;97259.16;;;0.52;100.00
45357;BME280;31092;51.924;21.448;2024-01-15T12:23:02;97370.63;;;1.19;100.00
45357;BME280;31092;51.924;21.448;2024-01-15T12:25:29;97277.41;;;0.47;100.00
45357;BME280;31092;51.924;21.448;2024-01-15T12:27:55;97281.03;;;0.46;100.00
45357;BME280;31092;51.924;21.448;2024-01-15T12:30:21;97327.56;;;0.71;100.00
45357;BME280;31092;51.924;21.448;2024-01-15T12:32:47;97362.50;;;0.98;100.00
45357;BME280;31092;51.924;21.448;2024-01-15T12:35:13;97281.97;;;0.53;100.00
45357;BME280;31092;51.924;21.448;2024-01-15T12:37:40;97387.41;;;1.12;100.00
45357;BME280;31092;51.924;21.448;2024-01-15T12:40:07;97341.69;;;0.87;100.00
45357;BME280;31092;51.924;21.448;2024-01-15T12:42:41;97364.00;;;0.92;100.00
45357;BME280;31092;51.924;21.448;2024-01-15T12:45:07;97388.50;;;0.94;100.00
45357;BME280;31092;51.924;21.448;2024-01-15T12:47:33;97294.22;;;0.54;100.00
45357;BME280;31092;51.924;21.448;2024-01-15T12:49:59;97253.72;;;0.22;100.00
45357;BME280;31092;51.924;21.448;2024-01-15T12:52:27;97379.91;;;0.92;100.00
45357;BME280;31092;51.924;21.448;2024-01-15T12:54:53;97283.91;;;0.36;100.00